Flight Track Log - Related Links

Times and Time Zones

All times are in EDT time to prevent confusion due to time zone crossing. See the KAP2826 flight status page for this flight to view local times or setup timezone preferences in your user account.

Time Position Orientation Groundspeed Altitude Reporting Facility
EDT Latitude Longitude Course Direction KTS MPH feet Rate Location/Type
Mon 02:38:18 PM 42.3667 -70.9833 114° Southeast 111 128 400  Level KA90
Mon 02:39:37 PM 42.3500 -70.9333 114° Southeast 119 137 1,000 522 Climbing KA90
Mon 02:40:36 PM 42.3333 -70.8833 114° Southeast 124 143 1,600 621 Climbing KA90
Mon 02:42:00 PM 42.2969 -70.8347 135° Southeast  Level FlightAware Approximate
Mon 02:42:31 PM 42.2833 -70.8333 135° Southeast 121 139 2,800  Level KA90
Mon 02:43:30 PM 42.2500 -70.8167 160° South 122 140 3,400 600 Climbing KA90
Mon 02:45:31 PM 42.2000 -70.7667 143° Southeast 129 148 4,600 533 Climbing KA90
Mon 02:46:30 PM 42.1667 -70.7500 160° South 128 147 5,000 407 Climbing KA90
Mon 02:48:00 PM 42.1601 -70.6765 97° East  Level FlightAware Approximate
Mon 02:55:00 PM 41.9319 -70.5196 114° Southeast  Level Estimated
Mon 02:56:00 PM 41.9404 -70.4717 77° East  Level FlightAware Approximate
Mon 02:57:00 PM 41.9488 -70.4239 77° East  Level FlightAware Approximate
Mon 02:58:00 PM 41.9572 -70.3760 77° East  Level FlightAware Approximate
Mon 02:59:00 PM 41.9656 -70.3281 77° East  Level FlightAware Approximate
Mon 03:00:00 PM 41.9739 -70.2802 77° East  Level FlightAware Approximate
Mon 03:01:00 PM 41.9823 -70.2322 77° East  Level FlightAware Approximate
Mon 03:02:00 PM 41.9463 -70.2236 180° South  Level Estimated
Mon 03:03:00 PM 41.9124 -70.2049 158° South  Level FlightAware Approximate
Mon 03:04:00 PM 41.8786 -70.1862 158° South  Level FlightAware Approximate
Mon 03:05:00 PM 41.8447 -70.1676 158° South  Level FlightAware Approximate
Mon 03:06:00 PM 41.8108 -70.1489 158° South  Level FlightAware Approximate
Mon 03:07:00 PM 41.7770 -70.1303 158° South  Level FlightAware Approximate
Mon 03:08:00 PM 41.7431 -70.1117 158° South  Level FlightAware Approximate
Mon 03:09:00 PM 41.7093 -70.0931 158° South  Level FlightAware Approximate
Mon 03:10:00 PM 41.6754 -70.0746 158° South  Level FlightAware Approximate
Mon 03:11:00 PM 41.6415 -70.0560 158° South  Level FlightAware Approximate
Mon 03:12:00 PM 41.6076 -70.0375 158° South  Level FlightAware Approximate
Mon 03:13:00 PM 41.5906 -70.0352 189° South  Level FlightAware Approximate
Mon 03:14:00 PM 41.5544 -70.0424 189° South  Level FlightAware Approximate
Mon 03:15:00 PM 41.5182 -70.0497 189° South  Level FlightAware Approximate
Mon 03:16:00 PM 41.4816 -70.0500 180° South  Level FlightAware Approximate
Mon 03:17:00 PM 41.4450 -70.0500 180° South  Level FlightAware Approximate
Mon 03:18:00 PM 41.4085 -70.0500 180° South  Level FlightAware Approximate
Mon 03:19:00 PM 41.3718 -70.0500 180° South  Level FlightAware Approximate
Mon 03:20:00 PM 41.3353 -70.0500 180° South  Level FlightAware Approximate
Mon 03:21:00 PM 41.2987 -70.0500 180° South  Level FlightAware Approximate
Mon 03:22:00 PM 41.2621 -70.0500 180° South  Level FlightAware Approximate
Mon 03:23:00 PM 41.2500 -70.0500 180° South  Level FlightAware Approximate
Mon 03:24:00 PM 41.2531 -70.0603 180° South  Level Estimated
Mon 03:25:00 PM 41.2531 -70.0603 180° South  Level Estimated
Mon 03:26:00 PM 41.2531 -70.0603 180° South  Level Estimated
Mon 03:27:00 PM 41.2531 -70.0603 180° South  Level Estimated
Mon 03:28:00 PM 41.2531 -70.0603 180° South  Level Estimated
Mon 03:29:00 PM 41.2531 -70.0603 180° South  Level Estimated
Mon 03:30:00 PM 41.2531 -70.0603 180° South  Level Estimated
Mon 03:31:00 PM 41.2531 -70.0603 180° South  Level Estimated
Mon 03:32:00 PM 41.2531 -70.0603 180° South  Level Estimated
Mon 03:33:00 PM 41.2531 -70.0603 180° South  Level Estimated
Mon 03:34:00 PM 41.2531 -70.0603 180° South  Level Estimated
Mon 03:35:00 PM 41.2531 -70.0603 180° South  Level Estimated
Mon 03:36:00 PM 41.2531 -70.0603 180° South  Level Estimated

Login

Don't have an account? Register now (free) for customized features, flight alerts, and more!